sensor_id;sensor_type;location;lat;lon;timestamp;P1;durP1;ratioP1;P2;durP2;ratioP2
3563;SDS011;1796;52.388;13.096;2023-02-15T00:01:36;38.87;;;17.87;;
3563;SDS011;1796;52.388;13.096;2023-02-15T00:04:03;55.80;;;18.80;;
3563;SDS011;1796;52.388;13.096;2023-02-15T00:06:30;56.20;;;17.50;;
3563;SDS011;1796;52.388;13.096;2023-02-15T00:08:58;39.37;;;18.07;;
3563;SDS011;1796;52.388;13.096;2023-02-15T00:11:25;45.87;;;18.40;;
3563;SDS011;1796;52.388;13.096;2023-02-15T00:14:08;43.00;;;18.73;;
3563;SDS011;1796;52.388;13.096;2023-02-15T00:16:38;46.77;;;19.77;;
3563;SDS011;1796;52.388;13.096;2023-02-15T00:19:06;45.63;;;19.67;;
3563;SDS011;1796;52.388;13.096;2023-02-15T00:21:34;42.30;;;17.90;;
3563;SDS011;1796;52.388;13.096;2023-02-15T00:24:03;49.57;;;18.63;;
3563;SDS011;1796;52.388;13.096;2023-02-15T00:26:32;44.97;;;18.37;;
3563;SDS011;1796;52.388;13.096;2023-02-15T00:28:59;52.10;;;17.90;;
3563;SDS011;1796;52.388;13.096;2023-02-15T00:31:27;41.33;;;18.47;;
3563;SDS011;1796;52.388;13.096;2023-02-15T00:33:57;42.63;;;17.43;;
3563;SDS011;1796;52.388;13.096;2023-02-15T00:36:27;44.87;;;18.47;;
3563;SDS011;1796;52.388;13.096;2023-02-15T00:38:54;46.83;;;17.80;;
3563;SDS011;1796;52.388;13.096;2023-02-15T00:41:22;41.83;;;18.30;;
3563;SDS011;1796;52.388;13.096;2023-02-15T00:43:48;44.77;;;16.10;;
3563;SDS011;1796;52.388;13.096;2023-02-15T00:46:15;39.93;;;17.13;;
3563;SDS011;1796;52.388;13.096;2023-02-15T00:48:42;35.33;;;17.43;;
3563;SDS011;1796;52.388;13.096;2023-02-15T00:51:10;48.60;;;17.40;;
3563;SDS011;1796;52.388;13.096;2023-02-15T00:53:37;42.97;;;17.37;;
3563;SDS011;1796;52.388;13.096;2023-02-15T00:56:04;48.80;;;18.17;;
3563;SDS011;1796;52.388;13.096;2023-02-15T00:58:31;47.20;;;17.77;;
3563;SDS011;1796;52.388;13.096;2023-02-15T01:01:02;40.70;;;17.27;;
3563;SDS011;1796;52.388;13.096;2023-02-15T01:03:30;45.37;;;19.23;;
3563;SDS011;1796;52.388;13.096;2023-02-15T01:05:57;42.40;;;17.97;;
3563;SDS011;1796;52.388;13.096;2023-02-15T01:08:26;51.23;;;19.97;;
3563;SDS011;1796;52.388;13.096;2023-02-15T01:10:53;45.63;;;19.63;;
3563;SDS011;1796;52.388;13.096;2023-02-15T01:13:20;40.50;;;16.77;;
3563;SDS011;1796;52.388;13.096;2023-02-15T01:15:51;42.83;;;17.77;;
3563;SDS011;1796;52.388;13.096;2023-02-15T01:18:19;42.77;;;16.27;;
3563;SDS011;1796;52.388;13.096;2023-02-15T01:20:46;42.07;;;19.03;;
3563;SDS011;1796;52.388;13.096;2023-02-15T01:23:13;43.03;;;18.43;;
3563;SDS011;1796;52.388;13.096;2023-02-15T01:25:41;41.30;;;18.07;;
3563;SDS011;1796;52.388;13.096;2023-02-15T01:28:08;44.70;;;17.33;;
3563;SDS011;1796;52.388;13.096;2023-02-15T01:30:35;40.90;;;16.60;;
3563;SDS011;1796;52.388;13.096;2023-02-15T01:33:02;36.07;;;16.03;;
3563;SDS011;1796;52.388;13.096;2023-02-15T01:35:29;47.17;;;16.90;;
3563;SDS011;1796;52.388;13.096;2023-02-15T01:37:56;40.67;;;16.93;;
3563;SDS011;1796;52.388;13.096;2023-02-15T01:40:24;38.87;;;16.17;;
3563;SDS011;1796;52.388;13.096;2023-02-15T01:42:52;40.07;;;17.23;;
3563;SDS011;1796;52.388;13.096;2023-02-15T01:45:22;39.63;;;16.80;;
3563;SDS011;1796;52.388;13.096;2023-02-15T01:47:52;46.27;;;16.70;;
3563;SDS011;1796;52.388;13.096;2023-02-15T01:50:23;55.27;;;18.77;;
3563;SDS011;1796;52.388;13.096;2023-02-15T01:52:55;50.47;;;17.53;;
3563;SDS011;1796;52.388;13.096;2023-02-15T01:55:25;47.47;;;18.60;;
3563;SDS011;1796;52.388;13.096;2023-02-15T01:57:59;44.93;;;18.27;;
3563;SDS011;1796;52.388;13.096;2023-02-15T02:00:27;44.37;;;16.57;;
3563;SDS011;1796;52.388;13.096;2023-02-15T02:02:54;36.80;;;17.53;;
3563;SDS011;1796;52.388;13.096;2023-02-15T02:05:22;36.10;;;16.70;;
3563;SDS011;1796;52.388;13.096;2023-02-15T02:07:50;39.13;;;16.70;;
3563;SDS011;1796;52.388;13.096;2023-02-15T02:10:20;36.90;;;17.20;;
3563;SDS011;1796;52.388;13.096;2023-02-15T02:12:48;32.57;;;15.83;;
3563;SDS011;1796;52.388;13.096;2023-02-15T02:15:19;36.30;;;17.20;;
3563;SDS011;1796;52.388;13.096;2023-02-15T02:17:56;43.17;;;18.20;;
3563;SDS011;1796;52.388;13.096;2023-02-15T02:20:43;50.40;;;18.87;;
3563;SDS011;1796;52.388;13.096;2023-02-15T02:23:37;44.53;;;18.30;;
3563;SDS011;1796;52.388;13.096;2023-02-15T02:26:25;44.40;;;18.80;;
3563;SDS011;1796;52.388;13.096;2023-02-15T02:35:30;44.20;;;18.07;;
3563;SDS011;1796;52.388;13.096;2023-02-15T02:38:06;51.03;;;18.10;;
3563;SDS011;1796;52.388;13.096;2023-02-15T02:40:41;42.80;;;18.03;;
3563;SDS011;1796;52.388;13.096;2023-02-15T02:43:15;43.27;;;15.97;;
3563;SDS011;1796;52.388;13.096;2023-02-15T02:45:48;42.93;;;18.90;;
3563;SDS011;1796;52.388;13.096;2023-02-15T02:48:20;47.30;;;17.70;;
3563;SDS011;1796;52.388;13.096;2023-02-15T02:50:50;48.63;;;18.97;;
3563;SDS011;1796;52.388;13.096;2023-02-15T02:53:17;52.07;;;19.13;;
3563;SDS011;1796;52.388;13.096;2023-02-15T02:55:44;46.00;;;18.77;;
3563;SDS011;1796;52.388;13.096;2023-02-15T02:58:17;41.20;;;17.50;;
3563;SDS011;1796;52.388;13.096;2023-02-15T03:00:48;48.50;;;18.30;;
3563;SDS011;1796;52.388;13.096;2023-02-15T03:03:21;51.40;;;18.90;;
3563;SDS011;1796;52.388;13.096;2023-02-15T03:05:53;43.40;;;16.90;;
3563;SDS011;1796;52.388;13.096;2023-02-15T03:08:23;45.50;;;18.40;;
3563;SDS011;1796;52.388;13.096;2023-02-15T03:10:56;55.87;;;19.77;;
3563;SDS011;1796;52.388;13.096;2023-02-15T03:13:25;43.93;;;16.57;;
3563;SDS011;1796;52.388;13.096;2023-02-15T03:15:53;36.10;;;17.47;;
3563;SDS011;1796;52.388;13.096;2023-02-15T03:18:41;45.87;;;17.23;;
3563;SDS011;1796;52.388;13.096;2023-02-15T03:21:17;35.33;;;16.90;;
3563;SDS011;1796;52.388;13.096;2023-02-15T03:23:48;43.00;;;16.90;;
3563;SDS011;1796;52.388;13.096;2023-02-15T03:26:18;38.93;;;16.10;;
3563;SDS011;1796;52.388;13.096;2023-02-15T03:28:47;40.10;;;17.17;;
3563;SDS011;1796;52.388;13.096;2023-02-15T03:31:17;51.90;;;17.90;;
3563;SDS011;1796;52.388;13.096;2023-02-15T03:33:49;43.10;;;16.03;;
3563;SDS011;1796;52.388;13.096;2023-02-15T03:36:20;30.47;;;15.23;;
3563;SDS011;1796;52.388;13.096;2023-02-15T03:38:51;30.40;;;14.40;;
3563;SDS011;1796;52.388;13.096;2023-02-15T03:41:25;28.40;;;13.70;;
3563;SDS011;1796;52.388;13.096;2023-02-15T03:43:54;32.03;;;12.70;;
3563;SDS011;1796;52.388;13.096;2023-02-15T03:46:26;32.53;;;15.23;;
3563;SDS011;1796;52.388;13.096;2023-02-15T03:49:00;31.50;;;13.30;;
3563;SDS011;1796;52.388;13.096;2023-02-15T03:51:33;23.47;;;12.00;;
3563;SDS011;1796;52.388;13.096;2023-02-15T03:54:04;25.50;;;13.67;;
3563;SDS011;1796;52.388;13.096;2023-02-15T03:56:34;29.63;;;13.20;;
3563;SDS011;1796;52.388;13.096;2023-02-15T03:59:03;27.67;;;14.50;;
3563;SDS011;1796;52.388;13.096;2023-02-15T04:01:55;35.53;;;14.00;;
3563;SDS011;1796;52.388;13.096;2023-02-15T04:04:34;24.60;;;13.40;;
3563;SDS011;1796;52.388;13.096;2023-02-15T04:07:02;27.90;;;13.20;;
3563;SDS011;1796;52.388;13.096;2023-02-15T04:09:30;28.60;;;15.03;;
3563;SDS011;1796;52.388;13.096;2023-02-15T04:12:14;30.67;;;15.33;;
3563;SDS011;1796;52.388;13.096;2023-02-15T04:14:41;30.93;;;14.53;;
3563;SDS011;1796;52.388;13.096;2023-02-15T04:17:26;36.77;;;15.03;;
3563;SDS011;1796;52.388;13.096;2023-02-15T04:19:54;34.53;;;16.13;;
3563;SDS011;1796;52.388;13.096;2023-02-15T04:22:39;33.30;;;15.27;;
3563;SDS011;1796;52.388;13.096;2023-02-15T04:25:23;34.50;;;16.30;;
3563;SDS011;1796;52.388;13.096;2023-02-15T04:27:51;42.00;;;17.17;;
3563;SDS011;1796;52.388;13.096;2023-02-15T04:30:21;34.77;;;16.90;;
3563;SDS011;1796;52.388;13.096;2023-02-15T04:32:49;40.33;;;17.73;;
3563;SDS011;1796;52.388;13.096;2023-02-15T04:35:18;49.47;;;17.60;;
3563;SDS011;1796;52.388;13.096;2023-02-15T04:37:45;35.90;;;16.90;;
3563;SDS011;1796;52.388;13.096;2023-02-15T04:40:12;39.07;;;17.60;;
3563;SDS011;1796;52.388;13.096;2023-02-15T04:42:40;45.33;;;18.60;;
3563;SDS011;1796;52.388;13.096;2023-02-15T04:45:07;39.00;;;18.73;;
3563;SDS011;1796;52.388;13.096;2023-02-15T04:47:34;46.23;;;16.87;;
3563;SDS011;1796;52.388;13.096;2023-02-15T04:50:01;56.20;;;21.97;;
3563;SDS011;1796;52.388;13.096;2023-02-15T04:52:30;59.40;;;20.40;;
3563;SDS011;1796;52.388;13.096;2023-02-15T04:54:56;61.13;;;21.83;;
3563;SDS011;1796;52.388;13.096;2023-02-15T04:57:23;65.70;;;22.90;;
3563;SDS011;1796;52.388;13.096;2023-02-15T04:59:50;98.03;;;24.97;;
3563;SDS011;1796;52.388;13.096;2023-02-15T05:02:17;93.10;;;23.13;;
3563;SDS011;1796;52.388;13.096;2023-02-15T05:04:44;78.77;;;24.30;;
3563;SDS011;1796;52.388;13.096;2023-02-15T05:07:11;152.07;;;26.30;;
3563;SDS011;1796;52.388;13.096;2023-02-15T05:09:39;90.70;;;25.30;;
3563;SDS011;1796;52.388;13.096;2023-02-15T05:12:06;78.47;;;22.47;;
3563;SDS011;1796;52.388;13.096;2023-02-15T05:14:33;85.13;;;21.97;;
3563;SDS011;1796;52.388;13.096;2023-02-15T05:16:59;130.57;;;22.50;;
3563;SDS011;1796;52.388;13.096;2023-02-15T05:19:28;107.13;;;23.57;;
3563;SDS011;1796;52.388;13.096;2023-02-15T05:21:55;81.67;;;24.73;;
3563;SDS011;1796;52.388;13.096;2023-02-15T05:24:22;146.37;;;24.33;;
3563;SDS011;1796;52.388;13.096;2023-02-15T05:27:08;215.87;;;24.17;;
3563;SDS011;1796;52.388;13.096;2023-02-15T05:29:54;115.43;;;22.70;;
3563;SDS011;1796;52.388;13.096;2023-02-15T05:32:21;64.90;;;19.03;;
3563;SDS011;1796;52.388;13.096;2023-02-15T05:34:48;111.90;;;22.70;;
3563;SDS011;1796;52.388;13.096;2023-02-15T05:37:15;183.37;;;21.40;;
3563;SDS011;1796;52.388;13.096;2023-02-15T05:39:41;80.93;;;21.67;;
3563;SDS011;1796;52.388;13.096;2023-02-15T05:42:10;153.40;;;21.57;;
3563;SDS011;1796;52.388;13.096;2023-02-15T05:44:37;53.40;;;21.07;;
3563;SDS011;1796;52.388;13.096;2023-02-15T05:47:03;71.77;;;20.67;;
3563;SDS011;1796;52.388;13.096;2023-02-15T05:49:32;63.77;;;19.47;;
3563;SDS011;1796;52.388;13.096;2023-02-15T05:51:59;143.43;;;21.07;;
3563;SDS011;1796;52.388;13.096;2023-02-15T05:54:26;110.40;;;21.70;;
3563;SDS011;1796;52.388;13.096;2023-02-15T05:56:53;86.40;;;21.73;;
3563;SDS011;1796;52.388;13.096;2023-02-15T05:59:22;66.87;;;21.40;;
3563;SDS011;1796;52.388;13.096;2023-02-15T06:01:49;90.90;;;22.63;;
3563;SDS011;1796;52.388;13.096;2023-02-15T06:04:16;61.97;;;19.27;;
3563;SDS011;1796;52.388;13.096;2023-02-15T06:06:42;72.17;;;19.70;;
3563;SDS011;1796;52.388;13.096;2023-02-15T06:09:10;75.23;;;20.47;;
3563;SDS011;1796;52.388;13.096;2023-02-15T06:11:37;60.43;;;19.90;;
3563;SDS011;1796;52.388;13.096;2023-02-15T06:14:04;79.03;;;19.00;;
3563;SDS011;1796;52.388;13.096;2023-02-15T06:16:32;59.00;;;18.47;;
3563;SDS011;1796;52.388;13.096;2023-02-15T06:18:59;74.63;;;19.50;;
3563;SDS011;1796;52.388;13.096;2023-02-15T06:21:27;65.77;;;19.27;;
3563;SDS011;1796;52.388;13.096;2023-02-15T06:23:54;59.93;;;20.60;;
3563;SDS011;1796;52.388;13.096;2023-02-15T06:26:20;86.40;;;20.47;;
3563;SDS011;1796;52.388;13.096;2023-02-15T06:28:47;78.27;;;19.70;;
3563;SDS011;1796;52.388;13.096;2023-02-15T06:31:14;114.57;;;21.80;;
3563;SDS011;1796;52.388;13.096;2023-02-15T06:33:42;83.80;;;19.60;;
3563;SDS011;1796;52.388;13.096;2023-02-15T06:36:09;51.87;;;19.23;;
3563;SDS011;1796;52.388;13.096;2023-02-15T06:38:37;85.77;;;20.50;;
3563;SDS011;1796;52.388;13.096;2023-02-15T06:41:04;118.33;;;20.30;;
3563;SDS011;1796;52.388;13.096;2023-02-15T06:43:31;65.03;;;20.30;;
3563;SDS011;1796;52.388;13.096;2023-02-15T06:45:59;59.87;;;18.40;;
3563;SDS011;1796;52.388;13.096;2023-02-15T06:48:26;64.53;;;19.70;;
3563;SDS011;1796;52.388;13.096;2023-02-15T06:50:54;48.17;;;19.30;;
3563;SDS011;1796;52.388;13.096;2023-02-15T06:53:21;72.27;;;18.77;;
3563;SDS011;1796;52.388;13.096;2023-02-15T06:55:47;147.23;;;20.20;;
3563;SDS011;1796;52.388;13.096;2023-02-15T06:58:14;73.90;;;20.07;;
3563;SDS011;1796;52.388;13.096;2023-02-15T07:00:41;55.80;;;19.30;;
3563;SDS011;1796;52.388;13.096;2023-02-15T07:03:08;59.73;;;18.57;;
3563;SDS011;1796;52.388;13.096;2023-02-15T07:05:35;44.90;;;17.30;;
3563;SDS011;1796;52.388;13.096;2023-02-15T07:08:03;77.23;;;18.97;;
3563;SDS011;1796;52.388;13.096;2023-02-15T07:10:30;50.53;;;19.33;;
3563;SDS011;1796;52.388;13.096;2023-02-15T07:12:57;54.97;;;20.57;;
3563;SDS011;1796;52.388;13.096;2023-02-15T07:15:22;78.80;;;18.93;;
3563;SDS011;1796;52.388;13.096;2023-02-15T07:17:49;65.87;;;19.83;;
3563;SDS011;1796;52.388;13.096;2023-02-15T07:20:17;108.00;;;20.17;;
3563;SDS011;1796;52.388;13.096;2023-02-15T07:22:45;58.03;;;20.70;;
3563;SDS011;1796;52.388;13.096;2023-02-15T07:25:13;73.53;;;20.13;;
3563;SDS011;1796;52.388;13.096;2023-02-15T07:27:41;49.57;;;17.50;;
3563;SDS011;1796;52.388;13.096;2023-02-15T07:30:09;101.00;;;19.40;;
3563;SDS011;1796;52.388;13.096;2023-02-15T07:32:38;55.27;;;19.10;;
3563;SDS011;1796;52.388;13.096;2023-02-15T07:35:25;106.87;;;20.17;;
3563;SDS011;1796;52.388;13.096;2023-02-15T07:37:52;118.67;;;22.17;;
3563;SDS011;1796;52.388;13.096;2023-02-15T07:40:21;61.57;;;20.57;;
3563;SDS011;1796;52.388;13.096;2023-02-15T07:42:48;64.80;;;19.80;;
3563;SDS011;1796;52.388;13.096;2023-02-15T07:45:16;60.10;;;19.20;;
3563;SDS011;1796;52.388;13.096;2023-02-15T07:47:43;55.83;;;19.80;;
3563;SDS011;1796;52.388;13.096;2023-02-15T07:50:10;57.27;;;21.33;;
3563;SDS011;1796;52.388;13.096;2023-02-15T07:52:37;67.60;;;18.53;;
3563;SDS011;1796;52.388;13.096;2023-02-15T07:55:04;49.10;;;19.93;;
3563;SDS011;1796;52.388;13.096;2023-02-15T07:57:32;103.53;;;20.93;;
3563;SDS011;1796;52.388;13.096;2023-02-15T07:59:59;63.13;;;20.20;;
3563;SDS011;1796;52.388;13.096;2023-02-15T08:02:26;50.70;;;20.20;;
3563;SDS011;1796;52.388;13.096;2023-02-15T08:04:53;66.97;;;20.50;;
3563;SDS011;1796;52.388;13.096;2023-02-15T08:07:20;51.73;;;20.00;;
3563;SDS011;1796;52.388;13.096;2023-02-15T08:09:47;73.70;;;20.30;;
3563;SDS011;1796;52.388;13.096;2023-02-15T08:12:14;69.77;;;22.00;;
3563;SDS011;1796;52.388;13.096;2023-02-15T08:14:42;56.20;;;20.47;;
3563;SDS011;1796;52.388;13.096;2023-02-15T08:17:09;62.93;;;20.37;;
3563;SDS011;1796;52.388;13.096;2023-02-15T08:19:36;48.77;;;21.63;;
3563;SDS011;1796;52.388;13.096;2023-02-15T08:22:04;51.00;;;20.30;;
3563;SDS011;1796;52.388;13.096;2023-02-15T08:24:33;43.30;;;20.90;;
3563;SDS011;1796;52.388;13.096;2023-02-15T08:27:01;48.83;;;20.97;;
3563;SDS011;1796;52.388;13.096;2023-02-15T08:29:30;47.80;;;20.80;;
3563;SDS011;1796;52.388;13.096;2023-02-15T08:31:59;48.63;;;21.37;;
3563;SDS011;1796;52.388;13.096;2023-02-15T08:34:31;50.57;;;21.63;;
3563;SDS011;1796;52.388;13.096;2023-02-15T08:36:58;51.00;;;20.97;;
3563;SDS011;1796;52.388;13.096;2023-02-15T08:39:25;49.87;;;21.20;;
3563;SDS011;1796;52.388;13.096;2023-02-15T08:41:53;49.10;;;20.73;;
3563;SDS011;1796;52.388;13.096;2023-02-15T08:44:20;50.37;;;22.17;;
3563;SDS011;1796;52.388;13.096;2023-02-15T08:46:48;51.57;;;21.17;;
3563;SDS011;1796;52.388;13.096;2023-02-15T08:49:17;50.83;;;21.97;;
3563;SDS011;1796;52.388;13.096;2023-02-15T08:51:46;50.80;;;22.00;;
3563;SDS011;1796;52.388;13.096;2023-02-15T08:54:14;51.43;;;21.50;;
3563;SDS011;1796;52.388;13.096;2023-02-15T08:56:43;52.40;;;23.27;;
3563;SDS011;1796;52.388;13.096;2023-02-15T08:59:12;43.43;;;22.10;;
3563;SDS011;1796;52.388;13.096;2023-02-15T09:01:41;50.00;;;21.37;;
3563;SDS011;1796;52.388;13.096;2023-02-15T09:04:08;51.93;;;22.80;;
3563;SDS011;1796;52.388;13.096;2023-02-15T09:06:37;44.30;;;22.77;;
3563;SDS011;1796;52.388;13.096;2023-02-15T09:09:05;50.87;;;22.00;;
3563;SDS011;1796;52.388;13.096;2023-02-15T09:11:33;45.03;;;21.87;;
3563;SDS011;1796;52.388;13.096;2023-02-15T09:14:02;45.50;;;22.20;;
3563;SDS011;1796;52.388;13.096;2023-02-15T09:16:31;40.43;;;20.10;;
3563;SDS011;1796;52.388;13.096;2023-02-15T09:19:00;44.70;;;21.23;;
3563;SDS011;1796;52.388;13.096;2023-02-15T09:21:27;48.40;;;22.30;;
3563;SDS011;1796;52.388;13.096;2023-02-15T09:23:57;49.30;;;22.97;;
3563;SDS011;1796;52.388;13.096;2023-02-15T09:26:26;44.73;;;21.43;;
3563;SDS011;1796;52.388;13.096;2023-02-15T09:28:55;45.37;;;22.27;;
3563;SDS011;1796;52.388;13.096;2023-02-15T09:31:24;42.33;;;20.17;;
3563;SDS011;1796;52.388;13.096;2023-02-15T09:33:51;48.03;;;21.10;;
3563;SDS011;1796;52.388;13.096;2023-02-15T09:36:19;43.37;;;21.43;;
3563;SDS011;1796;52.388;13.096;2023-02-15T09:38:50;57.73;;;23.90;;
3563;SDS011;1796;52.388;13.096;2023-02-15T09:41:30;46.57;;;22.17;;
3563;SDS011;1796;52.388;13.096;2023-02-15T09:44:15;42.60;;;21.60;;
3563;SDS011;1796;52.388;13.096;2023-02-15T09:46:54;44.17;;;20.87;;
3563;SDS011;1796;52.388;13.096;2023-02-15T09:49:34;49.43;;;21.43;;
3563;SDS011;1796;52.388;13.096;2023-02-15T09:52:19;40.80;;;21.63;;
3563;SDS011;1796;52.388;13.096;2023-02-15T09:55:15;53.70;;;24.30;;
3563;SDS011;1796;52.388;13.096;2023-02-15T09:57:53;49.57;;;23.30;;
3563;SDS011;1796;52.388;13.096;2023-02-15T10:00:24;50.50;;;24.97;;
3563;SDS011;1796;52.388;13.096;2023-02-15T10:03:07;50.47;;;23.83;;
3563;SDS011;1796;52.388;13.096;2023-02-15T10:05:48;44.03;;;21.27;;
3563;SDS011;1796;52.388;13.096;2023-02-15T10:08:32;47.10;;;23.37;;
3563;SDS011;1796;52.388;13.096;2023-02-15T10:11:14;47.20;;;23.50;;
3563;SDS011;1796;52.388;13.096;2023-02-15T10:14:11;44.77;;;21.20;;
3563;SDS011;1796;52.388;13.096;2023-02-15T10:16:48;44.30;;;21.70;;
3563;SDS011;1796;52.388;13.096;2023-02-15T10:19:23;47.03;;;21.73;;
3563;SDS011;1796;52.388;13.096;2023-02-15T10:22:00;44.87;;;22.37;;
3563;SDS011;1796;52.388;13.096;2023-02-15T10:24:39;45.57;;;22.17;;
3563;SDS011;1796;52.388;13.096;2023-02-15T10:27:18;51.13;;;24.50;;
3563;SDS011;1796;52.388;13.096;2023-02-15T10:29:50;41.20;;;22.00;;
3563;SDS011;1796;52.388;13.096;2023-02-15T10:32:28;48.67;;;24.70;;
3563;SDS011;1796;52.388;13.096;2023-02-15T10:35:03;48.67;;;24.97;;
3563;SDS011;1796;52.388;13.096;2023-02-15T10:37:57;47.87;;;23.83;;
3563;SDS011;1796;52.388;13.096;2023-02-15T10:40:37;51.50;;;23.83;;
3563;SDS011;1796;52.388;13.096;2023-02-15T10:46:23;47.23;;;23.00;;
3563;SDS011;1796;52.388;13.096;2023-02-15T10:49:17;47.10;;;24.50;;
3563;SDS011;1796;52.388;13.096;2023-02-15T10:51:57;45.23;;;22.77;;
3563;SDS011;1796;52.388;13.096;2023-02-15T10:54:36;46.23;;;22.63;;
3563;SDS011;1796;52.388;13.096;2023-02-15T10:57:09;44.53;;;23.60;;
3563;SDS011;1796;52.388;13.096;2023-02-15T10:59:49;46.50;;;23.47;;
3563;SDS011;1796;52.388;13.096;2023-02-15T11:02:30;47.00;;;23.30;;
3563;SDS011;1796;52.388;13.096;2023-02-15T11:05:08;45.70;;;23.70;;
3563;SDS011;1796;52.388;13.096;2023-02-15T11:07:54;50.57;;;23.47;;
3563;SDS011;1796;52.388;13.096;2023-02-15T11:10:26;47.10;;;24.37;;
3563;SDS011;1796;52.388;13.096;2023-02-15T11:12:56;45.13;;;22.53;;
3563;SDS011;1796;52.388;13.096;2023-02-15T11:15:29;40.40;;;24.50;;
3563;SDS011;1796;52.388;13.096;2023-02-15T11:18:04;47.43;;;25.50;;
3563;SDS011;1796;52.388;13.096;2023-02-15T11:20:38;47.67;;;23.97;;
3563;SDS011;1796;52.388;13.096;2023-02-15T11:23:12;46.83;;;23.50;;
3563;SDS011;1796;52.388;13.096;2023-02-15T11:25:44;48.97;;;24.07;;
3563;SDS011;1796;52.388;13.096;2023-02-15T11:28:16;42.60;;;23.67;;
3563;SDS011;1796;52.388;13.096;2023-02-15T11:30:46;45.17;;;23.17;;
3563;SDS011;1796;52.388;13.096;2023-02-15T11:33:19;48.73;;;22.00;;
3563;SDS011;1796;52.388;13.096;2023-02-15T11:35:48;48.73;;;24.57;;
3563;SDS011;1796;52.388;13.096;2023-02-15T11:38:20;43.80;;;22.47;;
3563;SDS011;1796;52.388;13.096;2023-02-15T11:40:51;43.67;;;23.00;;
3563;SDS011;1796;52.388;13.096;2023-02-15T11:43:23;47.33;;;23.60;;
3563;SDS011;1796;52.388;13.096;2023-02-15T11:45:57;51.93;;;24.17;;
3563;SDS011;1796;52.388;13.096;2023-02-15T11:48:25;41.30;;;23.10;;
3563;SDS011;1796;52.388;13.096;2023-02-15T11:50:54;47.20;;;24.57;;
3563;SDS011;1796;52.388;13.096;2023-02-15T11:53:22;55.63;;;24.70;;
3563;SDS011;1796;52.388;13.096;2023-02-15T11:55:52;44.30;;;22.80;;
3563;SDS011;1796;52.388;13.096;2023-02-15T11:58:23;53.13;;;24.10;;
3563;SDS011;1796;52.388;13.096;2023-02-15T12:00:56;48.33;;;23.10;;
3563;SDS011;1796;52.388;13.096;2023-02-15T12:03:29;36.77;;;21.70;;
3563;SDS011;1796;52.388;13.096;2023-02-15T12:06:11;36.90;;;22.90;;
3563;SDS011;1796;52.388;13.096;2023-02-15T12:08:48;50.83;;;24.63;;
3563;SDS011;1796;52.388;13.096;2023-02-15T12:11:20;43.73;;;21.87;;
3563;SDS011;1796;52.388;13.096;2023-02-15T12:13:56;42.43;;;23.80;;
3563;SDS011;1796;52.388;13.096;2023-02-15T12:16:25;46.23;;;23.63;;
3563;SDS011;1796;52.388;13.096;2023-02-15T12:18:55;43.80;;;22.83;;
3563;SDS011;1796;52.388;13.096;2023-02-15T12:21:25;40.40;;;22.00;;
3563;SDS011;1796;52.388;13.096;2023-02-15T12:23:55;38.97;;;19.93;;
3563;SDS011;1796;52.388;13.096;2023-02-15T12:26:24;37.10;;;20.10;;
3563;SDS011;1796;52.388;13.096;2023-02-15T12:28:53;36.90;;;21.33;;
3563;SDS011;1796;52.388;13.096;2023-02-15T12:31:23;30.47;;;19.13;;
3563;SDS011;1796;52.388;13.096;2023-02-15T12:33:55;31.00;;;19.17;;
3563;SDS011;1796;52.388;13.096;2023-02-15T12:36:29;39.00;;;21.00;;
3563;SDS011;1796;52.388;13.096;2023-02-15T12:39:05;39.03;;;19.70;;
3563;SDS011;1796;52.388;13.096;2023-02-15T12:41:44;32.07;;;19.27;;
3563;SDS011;1796;52.388;13.096;2023-02-15T12:44:15;33.13;;;19.30;;
3563;SDS011;1796;52.388;13.096;2023-02-15T12:46:44;31.87;;;18.17;;
3563;SDS011;1796;52.388;13.096;2023-02-15T12:49:24;34.87;;;21.60;;
3563;SDS011;1796;52.388;13.096;2023-02-15T12:51:52;35.57;;;19.40;;
3563;SDS011;1796;52.388;13.096;2023-02-15T12:54:31;28.57;;;17.20;;
3563;SDS011;1796;52.388;13.096;2023-02-15T12:57:13;26.10;;;15.77;;
3563;SDS011;1796;52.388;13.096;2023-02-15T12:59:51;30.30;;;16.43;;
3563;SDS011;1796;52.388;13.096;2023-02-15T13:02:22;27.87;;;15.83;;
3563;SDS011;1796;52.388;13.096;2023-02-15T13:04:53;25.23;;;15.53;;
3563;SDS011;1796;52.388;13.096;2023-02-15T13:07:21;31.23;;;15.10;;
3563;SDS011;1796;52.388;13.096;2023-02-15T13:09:50;23.00;;;15.40;;
3563;SDS011;1796;52.388;13.096;2023-02-15T13:12:20;25.93;;;16.30;;
3563;SDS011;1796;52.388;13.096;2023-02-15T13:14:51;25.23;;;15.20;;
3563;SDS011;1796;52.388;13.096;2023-02-15T13:17:21;22.90;;;15.43;;
3563;SDS011;1796;52.388;13.096;2023-02-15T13:19:56;23.33;;;13.77;;
3563;SDS011;1796;52.388;13.096;2023-02-15T13:22:30;20.70;;;14.70;;
3563;SDS011;1796;52.388;13.096;2023-02-15T13:25:03;24.73;;;13.30;;
3563;SDS011;1796;52.388;13.096;2023-02-15T13:27:38;18.33;;;12.00;;
3563;SDS011;1796;52.388;13.096;2023-02-15T13:30:13;16.27;;;11.20;;
3563;SDS011;1796;52.388;13.096;2023-02-15T13:32:48;13.93;;;9.67;;
3563;SDS011;1796;52.388;13.096;2023-02-15T13:35:19;12.03;;;9.23;;
3563;SDS011;1796;52.388;13.096;2023-02-15T13:37:57;12.07;;;9.40;;
3563;SDS011;1796;52.388;13.096;2023-02-15T13:40:36;12.33;;;9.27;;
3563;SDS011;1796;52.388;13.096;2023-02-15T13:43:13;12.93;;;10.10;;
3563;SDS011;1796;52.388;13.096;2023-02-15T13:45:57;16.40;;;10.07;;
3563;SDS011;1796;52.388;13.096;2023-02-15T13:48:39;18.60;;;11.20;;
3563;SDS011;1796;52.388;13.096;2023-02-15T13:51:15;12.73;;;9.60;;
3563;SDS011;1796;52.388;13.096;2023-02-15T13:53:59;17.53;;;9.70;;
3563;SDS011;1796;52.388;13.096;2023-02-15T13:56:49;19.10;;;10.50;;
3563;SDS011;1796;52.388;13.096;2023-02-15T13:59:29;16.57;;;11.80;;
3563;SDS011;1796;52.388;13.096;2023-02-15T14:02:18;40.27;;;11.90;;
3563;SDS011;1796;52.388;13.096;2023-02-15T14:05:15;15.00;;;11.40;;
3563;SDS011;1796;52.388;13.096;2023-02-15T14:07:58;14.70;;;10.77;;
3563;SDS011;1796;52.388;13.096;2023-02-15T14:10:38;16.00;;;11.27;;
3563;SDS011;1796;52.388;13.096;2023-02-15T14:13:17;36.30;;;12.90;;
3563;SDS011;1796;52.388;13.096;2023-02-15T14:16:03;22.23;;;11.10;;
3563;SDS011;1796;52.388;13.096;2023-02-15T14:18:35;14.90;;;10.37;;
3563;SDS011;1796;52.388;13.096;2023-02-15T14:21:06;15.33;;;11.30;;
3563;SDS011;1796;52.388;13.096;2023-02-15T14:23:43;16.40;;;10.87;;
3563;SDS011;1796;52.388;13.096;2023-02-15T14:26:26;15.93;;;11.23;;
3563;SDS011;1796;52.388;13.096;2023-02-15T14:29:04;14.90;;;10.90;;
3563;SDS011;1796;52.388;13.096;2023-02-15T14:31:39;17.40;;;10.60;;
3563;SDS011;1796;52.388;13.096;2023-02-15T14:34:14;14.87;;;10.23;;
3563;SDS011;1796;52.388;13.096;2023-02-15T14:36:46;14.23;;;10.23;;
3563;SDS011;1796;52.388;13.096;2023-02-15T14:39:18;14.03;;;10.23;;
3563;SDS011;1796;52.388;13.096;2023-02-15T14:42:12;13.23;;;10.13;;
3563;SDS011;1796;52.388;13.096;2023-02-15T14:44:47;15.90;;;11.70;;
3563;SDS011;1796;52.388;13.096;2023-02-15T14:47:19;14.20;;;10.40;;
3563;SDS011;1796;52.388;13.096;2023-02-15T14:49:50;17.40;;;10.97;;
3563;SDS011;1796;52.388;13.096;2023-02-15T14:52:17;16.60;;;11.50;;
3563;SDS011;1796;52.388;13.096;2023-02-15T14:54:55;18.40;;;11.80;;
3563;SDS011;1796;52.388;13.096;2023-02-15T14:57:31;16.90;;;11.40;;
3563;SDS011;1796;52.388;13.096;2023-02-15T14:59:59;17.60;;;11.83;;
3563;SDS011;1796;52.388;13.096;2023-02-15T15:02:40;18.13;;;10.90;;
3563;SDS011;1796;52.388;13.096;2023-02-15T15:05:11;17.07;;;11.47;;
3563;SDS011;1796;52.388;13.096;2023-02-15T15:07:45;16.93;;;11.10;;
3563;SDS011;1796;52.388;13.096;2023-02-15T15:18:56;13.83;;;10.23;;